sensor_id;sensor_type;location;lat;lon;timestamp;pressure;altitude;pressure_sealevel;temperature;humidity
31681;BME280;18281;51.364;9.566;2023-08-01T00:01:40;98509.59;;;13.64;100.00
31681;BME280;18281;51.364;9.566;2023-08-01T00:04:05;98506.00;;;13.65;100.00
31681;BME280;18281;51.364;9.566;2023-08-01T00:06:31;98476.19;;;13.65;100.00
31681;BME280;18281;51.364;9.566;2023-08-01T00:08:56;98474.53;;;13.44;100.00
31681;BME280;18281;51.364;9.566;2023-08-01T00:11:21;98475.22;;;13.56;100.00
31681;BME280;18281;51.364;9.566;2023-08-01T00:13:46;98468.94;;;13.67;100.00
31681;BME280;18281;51.364;9.566;2023-08-01T00:16:12;98462.13;;;13.74;100.00
31681;BME280;18281;51.364;9.566;2023-08-01T00:18:37;98460.03;;;13.77;100.00
31681;BME280;18281;51.364;9.566;2023-08-01T00:21:03;98452.41;;;13.74;100.00
31681;BME280;18281;51.364;9.566;2023-08-01T00:23:31;98446.69;;;13.79;100.00
31681;BME280;18281;51.364;9.566;2023-08-01T00:25:56;98427.69;;;13.75;100.00
31681;BME280;18281;51.364;9.566;2023-08-01T00:28:22;98422.69;;;13.72;100.00
31681;BME280;18281;51.364;9.566;2023-08-01T00:30:47;98415.88;;;13.80;100.00
31681;BME280;18281;51.364;9.566;2023-08-01T00:33:12;98429.53;;;13.65;100.00
31681;BME280;18281;51.364;9.566;2023-08-01T00:35:38;98432.09;;;13.85;100.00
31681;BME280;18281;51.364;9.566;2023-08-01T00:38:03;98430.28;;;13.85;100.00
31681;BME280;18281;51.364;9.566;2023-08-01T00:40:32;98433.38;;;13.81;100.00
31681;BME280;18281;51.364;9.566;2023-08-01T00:42:58;98417.22;;;13.93;100.00
31681;BME280;18281;51.364;9.566;2023-08-01T00:45:23;98427.13;;;13.91;100.00
31681;BME280;18281;51.364;9.566;2023-08-01T00:47:50;98424.31;;;13.93;100.00
31681;BME280;18281;51.364;9.566;2023-08-01T00:50:15;98428.75;;;13.92;100.00
31681;BME280;18281;51.364;9.566;2023-08-01T00:52:41;98424.50;;;13.72;100.00
31681;BME280;18281;51.364;9.566;2023-08-01T00:55:06;98425.44;;;13.90;100.00
31681;BME280;18281;51.364;9.566;2023-08-01T00:57:32;98417.81;;;13.87;100.00
31681;BME280;18281;51.364;9.566;2023-08-01T00:59:57;98411.81;;;13.85;100.00
31681;BME280;18281;51.364;9.566;2023-08-01T01:02:22;98422.53;;;13.84;100.00
31681;BME280;18281;51.364;9.566;2023-08-01T01:04:47;98427.47;;;13.97;100.00
31681;BME280;18281;51.364;9.566;2023-08-01T01:07:13;98427.47;;;13.97;100.00
31681;BME280;18281;51.364;9.566;2023-08-01T01:09:40;98429.94;;;14.08;100.00
31681;BME280;18281;51.364;9.566;2023-08-01T01:12:05;98430.38;;;14.03;100.00
31681;BME280;18281;51.364;9.566;2023-08-01T01:14:31;98428.56;;;14.04;100.00
31681;BME280;18281;51.364;9.566;2023-08-01T01:16:57;98423.78;;;13.89;100.00
31681;BME280;18281;51.364;9.566;2023-08-01T01:19:22;98416.84;;;13.88;100.00
31681;BME280;18281;51.364;9.566;2023-08-01T01:21:47;98394.34;;;13.94;100.00
31681;BME280;18281;51.364;9.566;2023-08-01T01:24:13;98375.81;;;14.04;100.00
31681;BME280;18281;51.364;9.566;2023-08-01T01:26:40;98369.91;;;13.92;100.00
31681;BME280;18281;51.364;9.566;2023-08-01T01:29:06;98376.84;;;13.93;100.00
31681;BME280;18281;51.364;9.566;2023-08-01T01:31:33;98382.25;;;13.82;100.00
31681;BME280;18281;51.364;9.566;2023-08-01T01:33:59;98382.31;;;13.72;100.00
31681;BME280;18281;51.364;9.566;2023-08-01T01:36:24;98381.34;;;13.73;100.00
31681;BME280;18281;51.364;9.566;2023-08-01T01:38:49;98385.31;;;13.87;100.00
31681;BME280;18281;51.364;9.566;2023-08-01T01:41:15;98371.13;;;13.88;100.00
31681;BME280;18281;51.364;9.566;2023-08-01T01:43:40;98375.47;;;13.89;100.00
31681;BME280;18281;51.364;9.566;2023-08-01T01:46:06;98377.44;;;13.77;100.00
31681;BME280;18281;51.364;9.566;2023-08-01T01:48:31;98385.34;;;13.77;100.00
31681;BME280;18281;51.364;9.566;2023-08-01T01:50:56;98382.78;;;13.95;100.00
31681;BME280;18281;51.364;9.566;2023-08-01T01:53:21;98385.75;;;13.82;100.00
31681;BME280;18281;51.364;9.566;2023-08-01T01:55:47;98386.72;;;13.81;100.00
31681;BME280;18281;51.364;9.566;2023-08-01T01:58:12;98377.34;;;13.97;100.00
31681;BME280;18281;51.364;9.566;2023-08-01T02:00:37;98371.41;;;13.95;100.00
31681;BME280;18281;51.364;9.566;2023-08-01T02:03:02;98369.47;;;13.87;100.00
31681;BME280;18281;51.364;9.566;2023-08-01T02:05:28;98357.00;;;13.79;100.00
31681;BME280;18281;51.364;9.566;2023-08-01T02:07:56;98346.22;;;13.72;100.00
31681;BME280;18281;51.364;9.566;2023-08-01T02:10:22;98337.56;;;13.80;100.00
31681;BME280;18281;51.364;9.566;2023-08-01T02:12:47;98305.00;;;13.99;100.00
31681;BME280;18281;51.364;9.566;2023-08-01T02:15:12;98311.63;;;14.03;100.00
31681;BME280;18281;51.364;9.566;2023-08-01T02:17:38;98308.09;;;13.95;100.00
31681;BME280;18281;51.364;9.566;2023-08-01T02:20:04;98293.31;;;14.02;100.00
31681;BME280;18281;51.364;9.566;2023-08-01T02:22:30;98291.69;;;14.01;100.00
31681;BME280;18281;51.364;9.566;2023-08-01T02:24:55;98272.53;;;13.99;100.00
31681;BME280;18281;51.364;9.566;2023-08-01T02:27:20;98277.06;;;13.79;100.00
31681;BME280;18281;51.364;9.566;2023-08-01T02:29:45;98285.91;;;13.87;100.00
31681;BME280;18281;51.364;9.566;2023-08-01T02:32:11;98276.44;;;13.95;100.00
31681;BME280;18281;51.364;9.566;2023-08-01T02:34:36;98265.59;;;13.98;100.00
31681;BME280;18281;51.364;9.566;2023-08-01T02:37:01;98275.91;;;13.91;100.00
31681;BME280;18281;51.364;9.566;2023-08-01T02:39:27;98262.72;;;13.91;100.00
31681;BME280;18281;51.364;9.566;2023-08-01T02:41:52;98257.47;;;13.81;100.00
31681;BME280;18281;51.364;9.566;2023-08-01T02:44:17;98264.91;;;13.96;100.00
31681;BME280;18281;51.364;9.566;2023-08-01T02:46:42;98264.69;;;14.07;100.00
31681;BME280;18281;51.364;9.566;2023-08-01T02:49:07;98277.66;;;14.00;100.00
31681;BME280;18281;51.364;9.566;2023-08-01T02:51:33;98270.28;;;14.04;100.00
31681;BME280;18281;51.364;9.566;2023-08-01T02:53:58;98255.78;;;14.08;100.00
31681;BME280;18281;51.364;9.566;2023-08-01T02:56:23;98225.56;;;14.02;100.00
31681;BME280;18281;51.364;9.566;2023-08-01T02:58:48;98180.25;;;14.07;100.00
31681;BME280;18281;51.364;9.566;2023-08-01T03:01:14;98169.47;;;14.00;100.00
31681;BME280;18281;51.364;9.566;2023-08-01T03:03:39;98168.34;;;14.03;100.00
31681;BME280;18281;51.364;9.566;2023-08-01T03:06:04;98142.72;;;14.13;100.00
31681;BME280;18281;51.364;9.566;2023-08-01T03:08:30;98128.03;;;13.92;100.00
31681;BME280;18281;51.364;9.566;2023-08-01T03:10:55;98127.72;;;13.77;100.00
31681;BME280;18281;51.364;9.566;2023-08-01T03:13:21;98121.25;;;13.90;100.00
31681;BME280;18281;51.364;9.566;2023-08-01T03:15:46;98139.88;;;13.88;100.00
31681;BME280;18281;51.364;9.566;2023-08-01T03:18:11;98155.97;;;13.85;100.00
31681;BME280;18281;51.364;9.566;2023-08-01T03:20:37;98163.66;;;13.79;100.00
31681;BME280;18281;51.364;9.566;2023-08-01T03:23:02;98157.03;;;13.92;100.00
31681;BME280;18281;51.364;9.566;2023-08-01T03:25:27;98163.81;;;13.95;100.00
31681;BME280;18281;51.364;9.566;2023-08-01T03:27:52;98169.16;;;13.85;100.00
31681;BME280;18281;51.364;9.566;2023-08-01T03:30:19;98183.81;;;13.98;100.00
31681;BME280;18281;51.364;9.566;2023-08-01T03:32:45;98194.28;;;13.89;100.00
31681;BME280;18281;51.364;9.566;2023-08-01T03:35:11;98204.53;;;13.92;100.00
31681;BME280;18281;51.364;9.566;2023-08-01T03:37:36;98211.25;;;14.05;100.00
31681;BME280;18281;51.364;9.566;2023-08-01T03:40:01;98210.25;;;14.06;100.00
31681;BME280;18281;51.364;9.566;2023-08-01T03:42:26;98218.47;;;14.03;100.00
31681;BME280;18281;51.364;9.566;2023-08-01T03:44:52;98235.69;;;13.79;100.00
31681;BME280;18281;51.364;9.566;2023-08-01T03:47:17;98197.91;;;13.88;100.00
31681;BME280;18281;51.364;9.566;2023-08-01T03:49:42;98176.91;;;13.87;100.00
31681;BME280;18281;51.364;9.566;2023-08-01T03:52:07;98140.56;;;13.90;100.00
31681;BME280;18281;51.364;9.566;2023-08-01T03:54:33;98090.31;;;13.74;100.00
31681;BME280;18281;51.364;9.566;2023-08-01T03:56:58;98066.41;;;13.75;100.00
31681;BME280;18281;51.364;9.566;2023-08-01T03:59:23;98097.97;;;13.85;100.00
31681;BME280;18281;51.364;9.566;2023-08-01T04:01:48;98097.13;;;13.85;100.00
31681;BME280;18281;51.364;9.566;2023-08-01T04:04:15;98103.78;;;13.89;100.00
31681;BME280;18281;51.364;9.566;2023-08-01T04:06:40;98105.63;;;13.97;100.00
31681;BME280;18281;51.364;9.566;2023-08-01T04:09:05;98117.56;;;14.01;100.00
31681;BME280;18281;51.364;9.566;2023-08-01T04:11:31;98108.22;;;13.88;100.00
31681;BME280;18281;51.364;9.566;2023-08-01T04:13:57;98125.47;;;14.01;100.00
31681;BME280;18281;51.364;9.566;2023-08-01T04:16:22;98131.09;;;14.06;100.00
31681;BME280;18281;51.364;9.566;2023-08-01T04:18:47;98122.16;;;13.99;100.00
31681;BME280;18281;51.364;9.566;2023-08-01T04:21:13;98118.38;;;14.01;100.00
31681;BME280;18281;51.364;9.566;2023-08-01T04:23:39;98112.78;;;14.04;100.00
31681;BME280;18281;51.364;9.566;2023-08-01T04:26:04;98111.97;;;14.04;100.00
31681;BME280;18281;51.364;9.566;2023-08-01T04:28:31;98118.22;;;14.03;100.00
31681;BME280;18281;51.364;9.566;2023-08-01T04:30:56;98131.56;;;14.01;100.00
31681;BME280;18281;51.364;9.566;2023-08-01T04:33:21;98108.59;;;13.75;100.00
31681;BME280;18281;51.364;9.566;2023-08-01T04:35:47;98092.09;;;13.91;100.00
31681;BME280;18281;51.364;9.566;2023-08-01T04:38:14;98112.56;;;13.98;100.00
31681;BME280;18281;51.364;9.566;2023-08-01T04:40:39;98108.22;;;13.88;100.00
31681;BME280;18281;51.364;9.566;2023-08-01T04:43:04;98120.66;;;13.96;100.00
31681;BME280;18281;51.364;9.566;2023-08-01T04:45:29;98134.13;;;13.75;100.00
31681;BME280;18281;51.364;9.566;2023-08-01T04:47:54;98140.41;;;13.92;100.00
31681;BME280;18281;51.364;9.566;2023-08-01T04:50:20;98131.19;;;13.96;100.00
31681;BME280;18281;51.364;9.566;2023-08-01T04:52:45;98124.03;;;13.88;100.00
31681;BME280;18281;51.364;9.566;2023-08-01T04:55:10;98118.16;;;13.95;100.00
31681;BME280;18281;51.364;9.566;2023-08-01T04:57:35;98117.69;;;13.99;100.00
31681;BME280;18281;51.364;9.566;2023-08-01T05:00:01;98112.91;;;13.95;100.00
31681;BME280;18281;51.364;9.566;2023-08-01T05:02:26;98105.78;;;13.95;100.00
31681;BME280;18281;51.364;9.566;2023-08-01T05:04:51;98105.31;;;13.91;100.00
31681;BME280;18281;51.364;9.566;2023-08-01T05:07:17;98096.59;;;13.99;100.00
31681;BME280;18281;51.364;9.566;2023-08-01T05:09:42;98099.16;;;14.09;100.00
31681;BME280;18281;51.364;9.566;2023-08-01T05:12:07;98085.38;;;13.97;100.00
31681;BME280;18281;51.364;9.566;2023-08-01T05:14:34;98094.06;;;14.16;100.00
31681;BME280;18281;51.364;9.566;2023-08-01T05:16:59;98083.81;;;14.39;100.00
31681;BME280;18281;51.364;9.566;2023-08-01T05:19:24;98086.78;;;14.36;100.00
31681;BME280;18281;51.364;9.566;2023-08-01T05:21:49;98081.84;;;14.41;100.00
31681;BME280;18281;51.364;9.566;2023-08-01T05:24:15;98089.03;;;14.31;100.00
31681;BME280;18281;51.364;9.566;2023-08-01T05:26:40;98106.84;;;14.29;100.00
31681;BME280;18281;51.364;9.566;2023-08-01T05:29:05;98147.34;;;13.93;100.00
31681;BME280;18281;51.364;9.566;2023-08-01T05:31:30;98147.50;;;14.18;100.00
31681;BME280;18281;51.364;9.566;2023-08-01T05:33:56;98148.03;;;14.21;100.00
31681;BME280;18281;51.364;9.566;2023-08-01T05:36:21;98158.13;;;14.52;100.00
31681;BME280;18281;51.364;9.566;2023-08-01T05:38:46;98166.78;;;14.63;100.00
31681;BME280;18281;51.364;9.566;2023-08-01T05:41:11;98171.94;;;14.46;100.00
31681;BME280;18281;51.364;9.566;2023-08-01T05:43:36;98182.66;;;14.45;100.00
31681;BME280;18281;51.364;9.566;2023-08-01T05:46:02;98189.28;;;14.49;100.00
31681;BME280;18281;51.364;9.566;2023-08-01T05:48:27;98185.97;;;14.73;100.00
31681;BME280;18281;51.364;9.566;2023-08-01T05:50:52;98190.50;;;14.81;100.00
31681;BME280;18281;51.364;9.566;2023-08-01T05:53:20;98190.03;;;14.85;100.00
31681;BME280;18281;51.364;9.566;2023-08-01T05:55:45;98190.84;;;14.86;100.00
31681;BME280;18281;51.364;9.566;2023-08-01T05:58:10;98198.25;;;14.82;100.00
31681;BME280;18281;51.364;9.566;2023-08-01T06:00:36;98188.91;;;14.88;100.00
31681;BME280;18281;51.364;9.566;2023-08-01T06:03:01;98185.56;;;14.86;100.00
31681;BME280;18281;51.364;9.566;2023-08-01T06:05:26;98187.00;;;14.80;100.00
31681;BME280;18281;51.364;9.566;2023-08-01T06:07:52;98201.41;;;14.86;100.00
31681;BME280;18281;51.364;9.566;2023-08-01T06:10:17;98191.88;;;14.93;100.00
31681;BME280;18281;51.364;9.566;2023-08-01T06:12:42;98199.09;;;14.83;100.00
31681;BME280;18281;51.364;9.566;2023-08-01T06:15:07;98208.81;;;14.82;100.00
31681;BME280;18281;51.364;9.566;2023-08-01T06:17:33;98205.88;;;14.85;100.00
31681;BME280;18281;51.364;9.566;2023-08-01T06:19:58;98215.69;;;14.75;100.00
31681;BME280;18281;51.364;9.566;2023-08-01T06:22:23;98210.03;;;14.43;100.00
31681;BME280;18281;51.364;9.566;2023-08-01T06:24:48;98210.84;;;14.18;100.00
31681;BME280;18281;51.364;9.566;2023-08-01T06:27:13;98209.69;;;14.38;100.00
31681;BME280;18281;51.364;9.566;2023-08-01T06:29:40;98210.94;;;14.52;100.00
31681;BME280;18281;51.364;9.566;2023-08-01T06:32:05;98214.75;;;14.32;100.00
31681;BME280;18281;51.364;9.566;2023-08-01T06:34:30;98220.78;;;14.68;100.00
31681;BME280;18281;51.364;9.566;2023-08-01T06:36:56;98218.69;;;14.80;100.00
31681;BME280;18281;51.364;9.566;2023-08-01T06:39:21;98223.63;;;14.75;100.00
31681;BME280;18281;51.364;9.566;2023-08-01T06:41:46;98223.53;;;14.85;100.00
31681;BME280;18281;51.364;9.566;2023-08-01T06:44:11;98226.59;;;14.72;100.00
31681;BME280;18281;51.364;9.566;2023-08-01T06:46:36;98229.22;;;14.72;100.00
31681;BME280;18281;51.364;9.566;2023-08-01T06:49:02;98233.78;;;14.62;100.00
31681;BME280;18281;51.364;9.566;2023-08-01T06:51:27;98243.34;;;14.63;100.00
31681;BME280;18281;51.364;9.566;2023-08-01T06:53:52;98235.88;;;14.58;100.00
31681;BME280;18281;51.364;9.566;2023-08-01T06:56:17;98245.03;;;14.46;100.00
31681;BME280;18281;51.364;9.566;2023-08-01T06:58:43;98238.97;;;14.27;100.00
31681;BME280;18281;51.364;9.566;2023-08-01T07:01:08;98236.59;;;14.42;100.00
31681;BME280;18281;51.364;9.566;2023-08-01T07:03:33;98236.78;;;14.22;100.00
31681;BME280;18281;51.364;9.566;2023-08-01T07:05:58;98241.75;;;14.25;100.00
31681;BME280;18281;51.364;9.566;2023-08-01T07:08:24;98250.38;;;14.54;100.00
31681;BME280;18281;51.364;9.566;2023-08-01T07:10:49;98252.41;;;14.60;100.00
31681;BME280;18281;51.364;9.566;2023-08-01T07:13:14;98253.91;;;14.63;100.00
31681;BME280;18281;51.364;9.566;2023-08-01T07:15:41;98259.00;;;14.56;100.00
31681;BME280;18281;51.364;9.566;2023-08-01T07:18:06;98269.06;;;14.60;100.00
31681;BME280;18281;51.364;9.566;2023-08-01T07:20:31;98262.22;;;14.68;100.00
31681;BME280;18281;51.364;9.566;2023-08-01T07:22:56;98266.50;;;14.69;100.00
31681;BME280;18281;51.364;9.566;2023-08-01T07:25:22;98264.75;;;14.77;100.00
31681;BME280;18281;51.364;9.566;2023-08-01T07:27:47;98273.72;;;14.85;100.00
31681;BME280;18281;51.364;9.566;2023-08-01T07:30:12;98271.09;;;14.85;100.00
31681;BME280;18281;51.364;9.566;2023-08-01T07:32:38;98262.66;;;14.81;100.00
31681;BME280;18281;51.364;9.566;2023-08-01T07:35:06;98269.16;;;14.95;100.00
31681;BME280;18281;51.364;9.566;2023-08-01T07:37:34;98272.75;;;14.86;100.00
31681;BME280;18281;51.364;9.566;2023-08-01T07:40:00;98272.25;;;14.90;100.00
31681;BME280;18281;51.364;9.566;2023-08-01T07:42:25;98282.44;;;14.59;100.00
31681;BME280;18281;51.364;9.566;2023-08-01T07:44:50;98284.97;;;14.69;100.00
31681;BME280;18281;51.364;9.566;2023-08-01T07:47:15;98293.81;;;14.59;100.00
31681;BME280;18281;51.364;9.566;2023-08-01T07:49:41;98292.69;;;14.62;100.00
31681;BME280;18281;51.364;9.566;2023-08-01T07:52:06;98294.41;;;14.71;100.00
31681;BME280;18281;51.364;9.566;2023-08-01T07:54:31;98293.72;;;14.87;100.00
31681;BME280;18281;51.364;9.566;2023-08-01T07:56:56;98299.22;;;14.94;100.00
31681;BME280;18281;51.364;9.566;2023-08-01T07:59:22;98290.72;;;15.08;100.00
31681;BME280;18281;51.364;9.566;2023-08-01T08:01:47;98288.22;;;15.07;100.00
31681;BME280;18281;51.364;9.566;2023-08-01T08:04:13;98291.59;;;14.73;100.00
31681;BME280;18281;51.364;9.566;2023-08-01T08:06:39;98291.81;;;14.80;100.00
31681;BME280;18281;51.364;9.566;2023-08-01T08:09:04;98300.50;;;14.90;100.00
31681;BME280;18281;51.364;9.566;2023-08-01T08:11:29;98307.13;;;14.68;100.00
31681;BME280;18281;51.364;9.566;2023-08-01T08:13:55;98303.63;;;14.85;100.00
31681;BME280;18281;51.364;9.566;2023-08-01T08:16:20;98305.19;;;14.96;100.00
31681;BME280;18281;51.364;9.566;2023-08-01T08:18:45;98306.44;;;15.18;100.00
31681;BME280;18281;51.364;9.566;2023-08-01T08:21:10;98307.28;;;14.92;100.00
31681;BME280;18281;51.364;9.566;2023-08-01T08:23:36;98314.03;;;14.87;100.00
31681;BME280;18281;51.364;9.566;2023-08-01T08:26:01;98317.47;;;15.05;100.00
31681;BME280;18281;51.364;9.566;2023-08-01T08:28:30;98317.81;;;14.66;100.00
31681;BME280;18281;51.364;9.566;2023-08-01T08:30:56;98312.38;;;14.86;100.00
31681;BME280;18281;51.364;9.566;2023-08-01T08:33:21;98310.84;;;15.01;100.00
31681;BME280;18281;51.364;9.566;2023-08-01T08:35:47;98303.41;;;15.05;100.00
31681;BME280;18281;51.364;9.566;2023-08-01T08:38:12;98308.84;;;15.30;100.00
31681;BME280;18281;51.364;9.566;2023-08-01T08:40:38;98311.13;;;15.24;100.00
31681;BME280;18281;51.364;9.566;2023-08-01T08:43:06;98316.00;;;15.11;100.00
31681;BME280;18281;51.364;9.566;2023-08-01T08:45:33;98318.97;;;15.08;100.00
31681;BME280;18281;51.364;9.566;2023-08-01T08:48:00;98320.00;;;15.15;100.00
31681;BME280;18281;51.364;9.566;2023-08-01T08:50:26;98317.06;;;15.26;100.00
31681;BME280;18281;51.364;9.566;2023-08-01T08:52:54;98326.69;;;15.36;100.00
31681;BME280;18281;51.364;9.566;2023-08-01T08:55:19;98328.53;;;15.09;100.00
31681;BME280;18281;51.364;9.566;2023-08-01T08:57:48;98324.91;;;15.10;100.00
31681;BME280;18281;51.364;9.566;2023-08-01T09:00:16;98329.59;;;15.16;100.00
31681;BME280;18281;51.364;9.566;2023-08-01T09:02:41;98322.97;;;15.12;100.00
31681;BME280;18281;51.364;9.566;2023-08-01T09:05:07;98330.00;;;15.30;100.00
31681;BME280;18281;51.364;9.566;2023-08-01T09:07:33;98331.13;;;15.27;100.00
31681;BME280;18281;51.364;9.566;2023-08-01T09:09:58;98330.84;;;15.38;100.00
31681;BME280;18281;51.364;9.566;2023-08-01T09:15:31;98326.03;;;15.68;100.00
31681;BME280;18281;51.364;9.566;2023-08-01T09:18:17;98323.47;;;15.85;100.00
31681;BME280;18281;51.364;9.566;2023-08-01T09:20:46;98325.19;;;15.68;100.00
31681;BME280;18281;51.364;9.566;2023-08-01T09:23:11;98328.13;;;15.56;100.00
31681;BME280;18281;51.364;9.566;2023-08-01T09:25:37;98334.75;;;15.60;100.00
31681;BME280;18281;51.364;9.566;2023-08-01T09:28:02;98327.13;;;15.92;100.00
31681;BME280;18281;51.364;9.566;2023-08-01T09:30:27;98326.03;;;16.11;100.00
31681;BME280;18281;51.364;9.566;2023-08-01T09:32:56;98321.38;;;16.30;100.00
31681;BME280;18281;51.364;9.566;2023-08-01T09:35:22;98316.91;;;16.14;100.00
31681;BME280;18281;51.364;9.566;2023-08-01T09:37:50;98312.47;;;16.31;100.00
31681;BME280;18281;51.364;9.566;2023-08-01T09:40:16;98312.63;;;16.37;100.00
31681;BME280;18281;51.364;9.566;2023-08-01T09:42:42;98310.84;;;16.63;100.00
31681;BME280;18281;51.364;9.566;2023-08-01T09:45:14;98314.31;;;16.55;100.00
31681;BME280;18281;51.364;9.566;2023-08-01T09:47:40;98312.34;;;16.57;100.00
31681;BME280;18281;51.364;9.566;2023-08-01T09:50:05;98315.34;;;16.62;100.00
31681;BME280;18281;51.364;9.566;2023-08-01T09:52:33;98321.78;;;16.76;100.00
31681;BME280;18281;51.364;9.566;2023-08-01T09:55:02;98328.41;;;16.64;100.00
31681;BME280;18281;51.364;9.566;2023-08-01T09:57:28;98319.09;;;16.51;100.00
31681;BME280;18281;51.364;9.566;2023-08-01T09:59:54;98319.63;;;16.71;100.00
31681;BME280;18281;51.364;9.566;2023-08-01T10:02:20;98321.06;;;17.07;100.00
31681;BME280;18281;51.364;9.566;2023-08-01T10:04:47;98322.38;;;17.11;100.00
31681;BME280;18281;51.364;9.566;2023-08-01T10:07:13;98319.72;;;17.11;98.33
31681;BME280;18281;51.364;9.566;2023-08-01T10:09:38;98317.75;;;16.97;98.73
31681;BME280;18281;51.364;9.566;2023-08-01T10:12:05;98314.06;;;17.14;95.02
31681;BME280;18281;51.364;9.566;2023-08-01T10:14:34;98324.19;;;17.19;96.00
31681;BME280;18281;51.364;9.566;2023-08-01T10:17:07;98316.03;;;17.29;92.58
31681;BME280;18281;51.364;9.566;2023-08-01T10:19:32;98315.72;;;17.32;92.97
31681;BME280;18281;51.364;9.566;2023-08-01T10:22:03;98316.75;;;17.06;93.42
31681;BME280;18281;51.364;9.566;2023-08-01T10:24:29;98322.69;;;17.16;93.04
31681;BME280;18281;51.364;9.566;2023-08-01T10:26:55;98323.50;;;17.33;92.68
31681;BME280;18281;51.364;9.566;2023-08-01T10:29:22;98322.16;;;17.46;94.05
31681;BME280;18281;51.364;9.566;2023-08-01T10:32:01;98322.84;;;17.23;93.05
31681;BME280;18281;51.364;9.566;2023-08-01T10:34:26;98318.19;;;17.33;92.77
31681;BME280;18281;51.364;9.566;2023-08-01T10:36:58;98334.31;;;17.07;92.63
31681;BME280;18281;51.364;9.566;2023-08-01T10:39:24;98347.94;;;16.79;91.14
31681;BME280;18281;51.364;9.566;2023-08-01T10:42:00;98358.16;;;16.49;91.78
31681;BME280;18281;51.364;9.566;2023-08-01T10:44:44;98357.69;;;16.54;96.23
31681;BME280;18281;51.364;9.566;2023-08-01T10:47:15;98365.00;;;16.60;97.57
31681;BME280;18281;51.364;9.566;2023-08-01T10:49:49;98364.97;;;16.76;98.85
31681;BME280;18281;51.364;9.566;2023-08-01T10:52:16;98360.19;;;16.80;99.06
31681;BME280;18281;51.364;9.566;2023-08-01T10:54:42;98371.31;;;16.75;100.00
31681;BME280;18281;51.364;9.566;2023-08-01T10:57:07;98362.81;;;17.21;100.00
31681;BME280;18281;51.364;9.566;2023-08-01T10:59:32;98351.34;;;17.37;99.81
31681;BME280;18281;51.364;9.566;2023-08-01T11:01:59;98357.56;;;17.69;100.00
31681;BME280;18281;51.364;9.566;2023-08-01T11:04:32;98345.28;;;17.68;100.00
31681;BME280;18281;51.364;9.566;2023-08-01T11:06:58;98352.03;;;17.79;98.85
31681;BME280;18281;51.364;9.566;2023-08-01T11:09:30;98337.84;;;17.95;97.55
31681;BME280;18281;51.364;9.566;2023-08-01T11:11:56;98336.59;;;18.14;96.59
31681;BME280;18281;51.364;9.566;2023-08-01T11:14:22;98346.06;;;17.77;95.45
31681;BME280;18281;51.364;9.566;2023-08-01T11:16:49;98340.66;;;17.62;93.85
31681;BME280;18281;51.364;9.566;2023-08-01T11:19:22;98337.03;;;17.55;94.42
31681;BME280;18281;51.364;9.566;2023-08-01T11:21:48;98345.13;;;17.62;95.31
31681;BME280;18281;51.364;9.566;2023-08-01T11:24:13;98342.56;;;17.45;94.49
31681;BME280;18281;51.364;9.566;2023-08-01T11:26:45;98334.81;;;17.75;93.25
31681;BME280;18281;51.364;9.566;2023-08-01T11:29:11;98333.22;;;17.89;97.11
31681;BME280;18281;51.364;9.566;2023-08-01T11:31:37;98338.59;;;17.81;96.25
31681;BME280;18281;51.364;9.566;2023-08-01T11:34:02;98332.91;;;17.52;91.27
31681;BME280;18281;51.364;9.566;2023-08-01T11:36:28;98335.47;;;17.69;91.75
31681;BME280;18281;51.364;9.566;2023-08-01T11:38:54;98336.69;;;17.58;89.48
31681;BME280;18281;51.364;9.566;2023-08-01T11:41:20;98325.69;;;18.01;91.58
31681;BME280;18281;51.364;9.566;2023-08-01T11:43:46;98326.50;;;18.01;90.36
31681;BME280;18281;51.364;9.566;2023-08-01T11:46:11;98327.94;;;18.20;92.75
31681;BME280;18281;51.364;9.566;2023-08-01T11:48:37;98334.09;;;17.81;90.06
31681;BME280;18281;51.364;9.566;2023-08-01T11:51:02;98343.16;;;17.95;89.59
31681;BME280;18281;51.364;9.566;2023-08-01T11:53:28;98341.00;;;17.99;90.40
31681;BME280;18281;51.364;9.566;2023-08-01T11:55:54;98341.28;;;18.04;88.05
31681;BME280;18281;51.364;9.566;2023-08-01T11:58:34;98333.78;;;18.16;87.03
31681;BME280;18281;51.364;9.566;2023-08-01T12:03:28;98335.56;;;18.23;86.05
31681;BME280;18281;51.364;9.566;2023-08-01T12:06:02;98335.84;;;18.29;85.30
31681;BME280;18281;51.364;9.566;2023-08-01T12:08:27;98343.41;;;18.17;85.51
31681;BME280;18281;51.364;9.566;2023-08-01T12:10:57;98338.91;;;18.09;84.38
31681;BME280;18281;51.364;9.566;2023-08-01T12:13:23;98349.09;;;18.05;84.30
31681;BME280;18281;51.364;9.566;2023-08-01T12:15:53;98349.94;;;17.98;84.74
31681;BME280;18281;51.364;9.566;2023-08-01T12:18:22;98355.81;;;17.85;83.48
31681;BME280;18281;51.364;9.566;2023-08-01T12:20:54;98349.25;;;18.04;83.12
31681;BME280;18281;51.364;9.566;2023-08-01T12:23:20;98346.66;;;18.27;84.23
31681;BME280;18281;51.364;9.566;2023-08-01T12:25:46;98353.84;;;18.41;84.16
31681;BME280;18281;51.364;9.566;2023-08-01T12:28:13;98354.38;;;18.37;84.77
31681;BME280;18281;51.364;9.566;2023-08-01T12:30:41;98355.38;;;18.36;84.12
31681;BME280;18281;51.364;9.566;2023-08-01T12:33:07;98363.72;;;18.56;83.78
31681;BME280;18281;51.364;9.566;2023-08-01T12:35:33;98364.91;;;18.30;82.71
31681;BME280;18281;51.364;9.566;2023-08-01T12:37:58;98368.16;;;18.40;81.69
31681;BME280;18281;51.364;9.566;2023-08-01T12:40:23;98366.06;;;18.27;81.43
31681;BME280;18281;51.364;9.566;2023-08-01T12:42:48;98377.63;;;18.35;81.83
31681;BME280;18281;51.364;9.566;2023-08-01T12:45:14;98371.94;;;18.46;82.30
31681;BME280;18281;51.364;9.566;2023-08-01T12:47:39;98372.06;;;18.21;81.42
31681;BME280;18281;51.364;9.566;2023-08-01T12:50:04;98376.75;;;18.11;81.41
31681;BME280;18281;51.364;9.566;2023-08-01T12:52:30;98381.78;;;18.06;82.10